createdAt,value
2022-11-12T00:02:08.877Z,9.63
2022-11-12T00:05:15.138Z,12.03
2022-11-12T00:08:23.252Z,12.97
2022-11-12T00:11:29.211Z,11.27
2022-11-12T00:14:35.098Z,11.37
2022-11-12T00:17:41.429Z,10.47
2022-11-12T00:20:47.430Z,10.43
2022-11-12T00:23:54.805Z,9.87
2022-11-12T00:27:00.645Z,17.80
2022-11-12T00:30:08.186Z,10.80
2022-11-12T00:33:14.454Z,9.07
2022-11-12T00:36:20.577Z,15.10
2022-11-12T00:39:28.519Z,12.17
2022-11-12T00:42:34.712Z,11.50
2022-11-12T00:45:40.842Z,9.90
2022-11-12T00:48:47.353Z,12.97
2022-11-12T00:51:53.407Z,12.57
2022-11-12T00:55:00.790Z,11.33
2022-11-12T00:58:06.614Z,11.33
2022-11-12T01:01:16.114Z,11.07
2022-11-12T01:04:22.197Z,10.73
2022-11-12T01:07:29.046Z,10.70
2022-11-12T01:10:38.133Z,10.63
2022-11-12T01:13:46.226Z,11.17
2022-11-12T01:16:52.417Z,11.03
2022-11-12T01:19:58.303Z,10.80
2022-11-12T01:23:04.273Z,9.83
2022-11-12T01:26:14.516Z,10.40
2022-11-12T01:29:20.511Z,12.20
2022-11-12T01:32:27.996Z,11.63
2022-11-12T01:35:34.208Z,11.93
2022-11-12T01:38:42.204Z,12.17
2022-11-12T01:41:49.559Z,11.50
2022-11-12T01:44:55.973Z,11.90
2022-11-12T01:48:02.334Z,10.83
2022-11-12T01:51:10.299Z,13.53
2022-11-12T01:54:19.226Z,13.63
2022-11-12T01:57:34.384Z,10.33
2022-11-12T02:00:42.533Z,11.13
2022-11-12T02:03:49.006Z,15.23
2022-11-12T02:06:57.726Z,15.30
2022-11-12T02:10:05.454Z,12.87
2022-11-12T02:13:30.095Z,11.37
2022-11-12T02:16:38.753Z,10.47
2022-11-12T02:19:44.774Z,9.57
2022-11-12T02:22:52.200Z,9.37
2022-11-12T02:25:58.446Z,11.93
2022-11-12T02:29:04.910Z,9.73
2022-11-12T02:32:11.072Z,11.20
2022-11-12T02:35:17.569Z,12.13
2022-11-12T02:38:25.277Z,14.37
2022-11-12T02:41:31.351Z,7.23
2022-11-12T02:44:37.429Z,7.97
2022-11-12T02:47:43.479Z,5.50
2022-11-12T02:50:49.499Z,5.87
2022-11-12T02:53:57.065Z,8.30
2022-11-12T02:57:02.956Z,8.67
2022-11-12T03:00:11.419Z,7.43
2022-11-12T03:03:17.627Z,13.50
2022-11-12T03:06:23.992Z,9.53
2022-11-12T03:09:31.436Z,5.63
2022-11-12T03:12:37.731Z,5.07
2022-11-12T03:15:44.111Z,6.17
2022-11-12T03:18:50.276Z,6.13
2022-11-12T03:21:56.418Z,6.67
2022-11-12T03:25:04.047Z,7.00
2022-11-12T03:28:12.233Z,7.77
2022-11-12T03:31:18.525Z,10.80
2022-11-12T03:34:24.624Z,14.20
2022-11-12T03:37:30.881Z,8.70
2022-11-12T03:40:38.302Z,6.43
2022-11-12T03:43:44.493Z,5.43
2022-11-12T03:46:50.620Z,6.53
2022-11-12T03:49:56.541Z,7.43
2022-11-12T03:53:02.415Z,11.10
2022-11-12T03:56:09.947Z,13.47
2022-11-12T03:59:16.222Z,20.77
2022-11-12T04:02:22.679Z,19.80
2022-11-12T04:05:46.352Z,19.10
2022-11-12T04:08:52.254Z,11.57
2022-11-12T04:12:19.871Z,14.70
2022-11-12T04:15:25.806Z,13.10
2022-11-12T04:18:49.550Z,17.60
2022-11-12T04:22:00.718Z,16.13
2022-11-12T04:25:24.697Z,17.07
2022-11-12T04:28:32.086Z,19.47
2022-11-12T04:31:37.241Z,13.07
2022-11-12T04:34:43.365Z,11.57
2022-11-12T04:37:49.762Z,12.97
2022-11-12T04:41:13.436Z,12.73
2022-11-12T04:44:38.012Z,15.57
2022-11-12T04:47:44.516Z,13.80
2022-11-12T04:50:54.819Z,14.90
2022-11-12T04:54:00.869Z,13.73
2022-11-12T04:57:06.862Z,16.03
2022-11-12T05:00:15.386Z,14.60
2022-11-12T05:03:22.058Z,12.57
2022-11-12T05:06:46.096Z,12.37
2022-11-12T05:09:52.302Z,12.37
2022-11-12T05:12:58.694Z,15.00
2022-11-12T05:16:06.597Z,22.23
2022-11-12T05:19:12.764Z,19.40
2022-11-12T05:22:41.990Z,17.67
2022-11-12T05:25:44.745Z,18.03
2022-11-12T05:28:50.893Z,16.83
2022-11-12T05:31:58.330Z,16.27
2022-11-12T05:35:04.519Z,10.83
2022-11-12T05:38:29.572Z,7.33
2022-11-12T05:42:05.880Z,5.13
2022-11-12T05:45:02.440Z,7.00
2022-11-12T05:48:10.178Z,12.23
2022-11-12T05:51:16.188Z,12.07
2022-11-12T05:54:22.511Z,15.23
2022-11-12T05:57:28.715Z,12.57
2022-11-12T06:00:39.242Z,13.90
2022-11-12T06:03:46.521Z,15.50
2022-11-12T06:06:52.749Z,15.60
2022-11-12T06:09:59.101Z,8.53
2022-11-12T06:13:05.035Z,9.53
2022-11-12T06:16:11.038Z,23.70
2022-11-12T06:19:18.565Z,16.13
2022-11-12T06:22:24.893Z,18.80
2022-11-12T06:25:30.971Z,6.83
2022-11-12T06:28:37.264Z,6.97
2022-11-12T06:31:43.453Z,6.43
2022-11-12T06:34:52.841Z,6.87
2022-11-12T06:37:59.245Z,7.83
2022-11-12T06:41:05.659Z,7.60
2022-11-12T06:44:11.832Z,10.57
2022-11-12T06:47:17.894Z,9.67
2022-11-12T06:50:25.337Z,29.40
2022-11-12T06:53:31.474Z,14.03
2022-11-12T06:56:37.547Z,8.57
2022-11-12T06:59:43.850Z,6.30
2022-11-12T07:02:50.122Z,5.57
2022-11-12T07:05:57.757Z,5.60
2022-11-12T07:09:04.146Z,12.10
2022-11-12T07:12:10.335Z,10.77
2022-11-12T07:15:16.433Z,9.37
2022-11-12T07:18:22.632Z,9.20
2022-11-12T07:21:30.336Z,11.57
2022-11-12T07:24:36.374Z,5.37
2022-11-12T07:27:42.368Z,3.57
2022-11-12T07:30:48.254Z,4.90
2022-11-12T07:33:54.257Z,6.03
2022-11-12T07:37:01.815Z,8.43
2022-11-12T07:40:09.173Z,4.73
2022-11-12T07:43:15.286Z,4.40
2022-11-12T07:46:23.765Z,2.73
2022-11-12T07:49:30.063Z,2.80
2022-11-12T07:52:37.335Z,5.47
2022-11-12T07:55:43.643Z,5.70
2022-11-12T07:58:50.634Z,5.50
2022-11-12T08:01:56.566Z,5.07
2022-11-12T08:05:02.728Z,8.20
2022-11-12T08:08:11.311Z,5.63
2022-11-12T08:11:17.859Z,7.33
2022-11-12T08:14:24.895Z,7.57
2022-11-12T08:17:30.977Z,4.73
2022-11-12T08:20:37.088Z,4.50
2022-11-12T08:23:45.250Z,4.97
2022-11-12T08:26:51.585Z,5.70
2022-11-12T08:29:57.618Z,6.83
2022-11-12T08:33:05.337Z,10.90
2022-11-12T08:36:13.692Z,15.07
2022-11-12T08:39:22.415Z,16.57
2022-11-12T08:42:28.577Z,42.27
2022-11-12T08:45:35.773Z,7.43
2022-11-12T08:48:42.081Z,12.07
2022-11-12T08:51:48.670Z,13.10
2022-11-12T08:54:56.546Z,12.37
2022-11-12T08:58:03.900Z,13.40
2022-11-12T09:01:10.470Z,9.90
2022-11-12T09:04:16.915Z,7.27
2022-11-12T09:07:48.186Z,11.30
2022-11-12T09:10:51.444Z,9.57
2022-11-12T09:13:57.980Z,9.00
2022-11-12T09:17:04.379Z,9.17
2022-11-12T09:20:11.092Z,10.67
2022-11-12T09:23:18.446Z,13.17
2022-11-12T09:26:25.827Z,11.90
2022-11-12T09:29:32.030Z,6.93
2022-11-12T09:32:38.388Z,7.77
2022-11-12T09:35:45.681Z,9.77
2022-11-12T09:38:52.100Z,12.33
2022-11-12T09:42:02.103Z,10.70
2022-11-12T09:45:15.891Z,14.07
2022-11-12T09:48:26.927Z,14.23
2022-11-12T09:51:37.359Z,10.10
2022-11-12T09:54:44.109Z,6.97
2022-11-12T09:57:51.685Z,7.17
2022-11-12T10:01:01.249Z,31.20
2022-11-12T10:04:35.263Z,14.63
2022-11-12T10:07:55.290Z,11.90
2022-11-12T10:11:21.837Z,13.97
2022-11-12T10:14:55.514Z,19.63
2022-11-12T10:18:07.848Z,21.63
2022-11-12T10:21:24.547Z,20.33
2022-11-12T10:24:36.154Z,20.07
2022-11-12T10:27:43.809Z,20.73
2022-11-12T10:30:51.623Z,9.77
2022-11-12T10:34:18.702Z,11.40
2022-11-12T10:37:30.036Z,11.00
2022-11-12T10:40:39.437Z,11.10
2022-11-12T10:43:55.021Z,6.13
2022-11-12T10:47:27.499Z,6.67
2022-11-12T10:50:40.671Z,8.67
2022-11-12T10:53:47.168Z,7.30
2022-11-12T10:56:55.731Z,7.57
2022-11-12T11:00:16.868Z,6.43
2022-11-12T11:03:26.306Z,4.00
2022-11-12T11:06:32.755Z,3.57
2022-11-12T11:09:38.980Z,5.93
2022-11-12T11:12:45.067Z,6.03
2022-11-12T11:16:09.861Z,7.70
2022-11-12T11:19:17.425Z,14.60
2022-11-12T11:22:41.105Z,9.30
2022-11-12T11:25:51.419Z,7.67
2022-11-12T11:29:10.284Z,6.07
2022-11-12T11:32:37.546Z,3.63
2022-11-12T11:35:56.647Z,4.07
2022-11-12T11:39:11.034Z,3.57
2022-11-12T11:42:36.767Z,4.17
2022-11-12T11:46:00.846Z,5.83
2022-11-12T11:49:24.678Z,5.20
2022-11-12T11:52:47.270Z,9.33
2022-11-12T11:55:57.746Z,7.47
2022-11-12T11:59:16.447Z,7.67
2022-11-12T12:02:55.626Z,7.33
2022-11-12T12:06:16.658Z,5.00
2022-11-12T12:09:37.203Z,9.97
2022-11-12T12:12:58.031Z,6.93
2022-11-12T12:16:22.718Z,6.60
2022-11-12T12:19:42.681Z,20.07
2022-11-12T12:22:53.454Z,6.30
2022-11-12T12:26:04.223Z,10.63
2022-11-12T12:29:17.542Z,7.50
2022-11-12T12:32:30.753Z,12.37
2022-11-12T12:35:42.284Z,8.00
2022-11-12T12:38:53.741Z,6.37
2022-11-12T12:42:06.608Z,8.93
2022-11-12T12:45:35.775Z,6.33
2022-11-12T12:48:44.885Z,6.87
2022-11-12T12:51:55.585Z,7.27
2022-11-12T12:55:02.318Z,8.07
2022-11-12T12:58:20.561Z,8.40
2022-11-12T13:01:33.367Z,8.43
2022-11-12T13:04:54.954Z,13.60
2022-11-12T13:08:05.854Z,11.50
2022-11-12T13:11:12.008Z,9.37
2022-11-12T13:14:51.365Z,8.20
2022-11-12T13:17:58.934Z,8.40
2022-11-12T13:21:11.134Z,8.90
2022-11-12T13:24:17.647Z,12.07
2022-11-12T13:27:56.962Z,6.97
2022-11-12T13:31:04.969Z,9.40
2022-11-12T13:34:22.407Z,5.50
2022-11-12T13:37:28.790Z,8.80
2022-11-12T13:40:40.937Z,6.57
2022-11-12T13:43:48.495Z,10.10
2022-11-12T13:46:56.268Z,8.73
2022-11-12T13:50:04.294Z,8.07
2022-11-12T13:53:17.739Z,8.67
2022-11-12T13:56:31.088Z,6.47
2022-11-12T13:59:37.348Z,6.67
2022-11-12T14:02:45.709Z,7.40
2022-11-12T14:05:53.926Z,10.70
2022-11-12T14:09:24.124Z,8.63
2022-11-12T14:12:52.649Z,9.43
2022-11-12T14:16:20.410Z,14.90
2022-11-12T14:20:00.696Z,8.63
2022-11-12T14:23:15.847Z,9.97
2022-11-12T14:26:36.281Z,9.70
2022-11-12T14:29:43.825Z,14.70
2022-11-12T14:32:52.722Z,22.77
2022-11-12T14:36:03.391Z,20.17
2022-11-12T14:39:13.054Z,19.23
2022-11-12T14:42:19.576Z,16.10
2022-11-12T14:45:26.741Z,31.33
2022-11-12T14:48:46.235Z,32.43
2022-11-12T14:51:57.526Z,22.90
2022-11-12T14:55:11.658Z,22.80
2022-11-12T14:58:20.180Z,20.73
2022-11-12T15:05:00.580Z,30.63
2022-11-12T15:08:11.714Z,32.37
2022-11-12T15:11:24.714Z,27.80
2022-11-12T15:14:31.613Z,20.90
2022-11-12T15:17:38.864Z,22.07
2022-11-12T15:20:45.066Z,30.67
2022-11-12T15:23:53.241Z,25.97
2022-11-12T15:27:03.405Z,21.20
2022-11-12T15:30:16.211Z,27.80
2022-11-12T15:33:23.940Z,28.33
2022-11-12T15:36:30.641Z,16.17
2022-11-12T15:39:45.892Z,45.63
2022-11-12T15:42:53.461Z,24.97
2022-11-12T15:46:00.027Z,15.83
2022-11-12T15:49:13.760Z,15.47
2022-11-12T15:52:20.672Z,18.47
2022-11-12T15:55:26.890Z,25.97
2022-11-12T15:58:36.686Z,29.20
2022-11-12T16:01:43.210Z,27.13
2022-11-12T16:04:49.226Z,30.73
2022-11-12T16:07:55.168Z,40.30
2022-11-12T16:11:34.252Z,25.97
2022-11-12T16:14:42.302Z,26.13
2022-11-12T16:17:49.396Z,24.60
2022-11-12T16:20:55.321Z,16.03
2022-11-12T16:24:01.452Z,10.43
2022-11-12T16:27:08.725Z,19.10
2022-11-12T16:30:18.485Z,23.27
2022-11-12T16:33:25.037Z,19.37
2022-11-12T16:36:31.721Z,18.73
2022-11-12T16:39:38.326Z,25.43
2022-11-12T16:42:45.904Z,10.07
2022-11-12T16:45:53.253Z,13.30
2022-11-12T16:48:59.689Z,13.93
2022-11-12T16:52:06.113Z,13.03
2022-11-12T16:55:12.534Z,13.67
2022-11-12T16:58:18.709Z,15.47
2022-11-12T17:01:28.205Z,18.77
2022-11-12T17:04:34.707Z,16.33
2022-11-12T17:07:40.898Z,23.50
2022-11-12T17:10:47.197Z,29.00
2022-11-12T17:13:53.551Z,26.57
2022-11-12T17:17:01.328Z,26.77
2022-11-12T17:20:09.013Z,24.30
2022-11-12T17:23:15.388Z,18.60
2022-11-12T17:26:21.950Z,16.63
2022-11-12T17:29:28.570Z,15.70
2022-11-12T17:32:35.863Z,21.57
2022-11-12T17:35:42.166Z,17.37
2022-11-12T17:38:48.455Z,16.23
2022-11-12T17:41:54.581Z,18.33
2022-11-12T17:45:00.508Z,19.63
2022-11-12T17:48:08.489Z,15.67
2022-11-12T17:51:17.638Z,12.00
2022-11-12T17:54:23.941Z,11.00
2022-11-12T17:57:30.030Z,8.13
2022-11-12T18:00:54.453Z,9.97
2022-11-12T18:04:01.808Z,19.83
2022-11-12T18:07:07.858Z,19.70
2022-11-12T18:10:19.286Z,15.77
2022-11-12T18:13:27.925Z,13.87
2022-11-12T18:16:34.075Z,21.03
2022-11-12T18:19:41.744Z,22.50
2022-11-12T18:22:47.872Z,19.87
2022-11-12T18:25:53.626Z,13.33
2022-11-12T18:29:00.594Z,13.63
2022-11-12T18:32:07.044Z,25.53
2022-11-12T18:35:14.608Z,16.80
2022-11-12T18:38:20.827Z,20.53
2022-11-12T18:41:28.565Z,17.83
2022-11-12T18:44:34.715Z,17.67
2022-11-12T18:47:41.082Z,17.70
2022-11-12T18:50:48.805Z,22.57
2022-11-12T18:53:56.430Z,27.57
2022-11-12T18:57:02.487Z,37.17
2022-11-12T19:00:09.992Z,25.40
2022-11-12T19:03:16.376Z,28.77
2022-11-12T19:06:25.059Z,23.33
2022-11-12T19:09:31.258Z,31.60
2022-11-12T19:12:37.828Z,32.83
2022-11-12T19:15:43.790Z,28.83
2022-11-12T19:18:51.065Z,33.40
2022-11-12T19:21:58.669Z,30.03
2022-11-12T19:25:05.079Z,25.70
2022-11-12T19:28:11.165Z,30.50
2022-11-12T19:31:18.841Z,26.37
2022-11-12T19:34:24.910Z,21.30
2022-11-12T19:37:33.962Z,20.03
2022-11-12T19:40:40.437Z,16.23
2022-11-12T19:43:46.241Z,22.10
2022-11-12T19:46:52.238Z,17.10
2022-11-12T19:49:58.243Z,20.47
2022-11-12T19:53:05.695Z,30.13
2022-11-12T19:56:13.894Z,31.37
2022-11-12T19:59:20.270Z,33.37
2022-11-12T20:02:26.730Z,26.37
2022-11-12T20:05:32.949Z,20.27
2022-11-12T20:08:40.657Z,24.27
2022-11-12T20:11:46.747Z,28.90
2022-11-12T20:14:52.786Z,29.37
2022-11-12T20:17:58.956Z,29.67
2022-11-12T20:21:05.661Z,31.97
2022-11-12T20:24:13.162Z,26.47
2022-11-12T20:27:19.434Z,22.27
2022-11-12T20:30:25.763Z,31.13
2022-11-12T20:33:31.672Z,21.00
2022-11-12T20:36:37.871Z,19.17
2022-11-12T20:39:45.862Z,20.00
2022-11-12T20:42:52.263Z,17.07
2022-11-12T20:45:58.083Z,23.60
2022-11-12T20:49:06.633Z,21.50
2022-11-12T20:52:12.934Z,13.97
2022-11-12T20:55:20.318Z,10.50
2022-11-12T20:58:28.008Z,13.03
2022-11-12T21:01:34.304Z,22.77
2022-11-12T21:04:40.453Z,14.00
2022-11-12T21:07:46.700Z,22.27
2022-11-12T21:10:53.965Z,28.00
2022-11-12T21:14:00.891Z,14.77
2022-11-12T21:17:07.257Z,21.03
2022-11-12T21:20:13.378Z,22.53
2022-11-12T21:23:19.614Z,32.57
2022-11-12T21:26:26.848Z,20.20
2022-11-12T21:29:33.384Z,16.53
2022-11-12T21:32:39.214Z,14.50
2022-11-12T21:35:52.274Z,10.13
2022-11-12T21:38:58.937Z,12.43
2022-11-12T21:42:06.778Z,10.50
2022-11-12T21:45:13.637Z,9.70
2022-11-12T21:48:19.920Z,15.17
2022-11-12T21:51:27.811Z,12.27
2022-11-12T21:54:33.705Z,14.40
2022-11-12T21:57:40.977Z,14.13
2022-11-12T22:00:47.150Z,13.83
2022-11-12T22:03:55.617Z,12.13
2022-11-12T22:07:01.431Z,11.33
2022-11-12T22:10:08.499Z,13.03
2022-11-12T22:13:31.523Z,15.03
2022-11-12T22:16:37.977Z,15.73
2022-11-12T22:19:44.439Z,13.00
2022-11-12T22:22:52.790Z,13.30
2022-11-12T22:25:59.331Z,24.87
2022-11-12T22:29:06.582Z,19.83
2022-11-12T22:32:13.162Z,14.70
2022-11-12T22:35:19.560Z,8.70
2022-11-12T22:38:25.978Z,9.60
2022-11-12T22:41:33.074Z,11.27
2022-11-12T22:44:40.833Z,13.43
2022-11-12T22:47:46.771Z,15.80
2022-11-12T22:50:53.013Z,16.53
2022-11-12T22:54:01.088Z,15.57
2022-11-12T22:57:07.093Z,15.00
2022-11-12T23:00:16.200Z,13.40
2022-11-12T23:03:22.430Z,14.83
2022-11-12T23:06:30.033Z,8.60
2022-11-12T23:09:35.960Z,10.90
2022-11-12T23:12:42.097Z,11.17
2022-11-12T23:15:49.644Z,7.13
2022-11-12T23:18:56.000Z,9.10
2022-11-12T23:22:07.537Z,9.40
2022-11-12T23:25:14.072Z,8.33
2022-11-12T23:28:20.093Z,7.70
2022-11-12T23:31:29.829Z,9.23
2022-11-12T23:34:35.746Z,14.87
2022-11-12T23:37:41.961Z,8.57
2022-11-12T23:40:55.032Z,10.20
2022-11-12T23:44:01.158Z,8.50
2022-11-12T23:47:08.685Z,7.83
2022-11-12T23:50:14.946Z,8.67
2022-11-12T23:53:21.138Z,8.40
2022-11-12T23:56:27.388Z,8.50
2022-11-12T23:59:33.322Z,10.63
